createdAt,value
2019-04-28T00:00:03.631Z,0.80
2019-04-28T00:02:31.678Z,0.85
2019-04-28T00:05:01.482Z,0.77
2019-04-28T00:07:28.632Z,0.75
2019-04-28T00:09:56.686Z,0.80
2019-04-28T00:12:26.122Z,1.05
2019-04-28T00:14:54.167Z,0.90
2019-04-28T00:17:22.986Z,0.80
2019-04-28T00:19:51.456Z,0.80
2019-04-28T00:22:20.864Z,0.75
2019-04-28T00:24:47.906Z,0.90
2019-04-28T00:27:15.942Z,0.80
2019-04-28T00:29:46.255Z,0.80
2019-04-28T00:32:12.816Z,0.80
2019-04-28T00:34:41.380Z,0.77
2019-04-28T00:37:08.881Z,1.00
2019-04-28T00:39:36.911Z,1.00
2019-04-28T00:42:05.728Z,0.75
2019-04-28T00:44:33.755Z,0.90
2019-04-28T00:47:01.800Z,0.98
2019-04-28T00:49:35.452Z,1.05
2019-04-28T00:52:03.503Z,1.10
2019-04-28T00:54:32.296Z,1.12
2019-04-28T00:57:01.494Z,1.00
2019-04-28T00:59:31.594Z,1.07
2019-04-28T01:01:58.468Z,1.70
2019-04-28T01:04:26.548Z,2.42
2019-04-28T01:06:54.586Z,1.70
2019-04-28T01:09:23.399Z,1.10
2019-04-28T01:11:53.476Z,1.10
2019-04-28T01:14:21.335Z,1.10
2019-04-28T01:16:50.024Z,1.20
2019-04-28T01:19:17.704Z,1.20
2019-04-28T01:24:46.208Z,1.10
2019-04-28T01:27:25.732Z,1.10
2019-04-28T01:30:05.448Z,1.00
2019-04-28T01:32:24.645Z,1.00
2019-04-28T01:34:53.468Z,0.93
2019-04-28T01:37:22.234Z,1.30
2019-04-28T01:39:51.046Z,1.08
2019-04-28T01:42:20.365Z,1.20
2019-04-28T01:44:47.171Z,1.40
2019-04-28T01:47:15.247Z,1.20
2019-04-28T01:49:43.327Z,1.50
2019-04-28T01:52:11.391Z,1.30
2019-04-28T01:54:40.259Z,1.35
2019-04-28T01:57:07.452Z,1.40
2019-04-28T01:59:35.491Z,1.50
2019-04-28T02:02:03.522Z,1.60
2019-04-28T02:04:32.550Z,1.30
2019-04-28T02:06:59.973Z,1.50
2019-04-28T02:09:29.546Z,1.50
2019-04-28T02:11:55.856Z,1.40
2019-04-28T02:14:23.898Z,1.37
2019-04-28T02:16:52.715Z,1.20
2019-04-28T02:19:21.495Z,1.30
2019-04-28T02:22:05.362Z,1.42
2019-04-28T02:24:33.419Z,1.40
2019-04-28T02:27:01.450Z,1.15
2019-04-28T02:29:30.307Z,1.45
2019-04-28T02:32:01.730Z,1.20
2019-04-28T02:34:26.355Z,0.95
2019-04-28T02:36:54.380Z,1.10
2019-04-28T02:39:22.420Z,1.10
2019-04-28T02:41:51.393Z,1.10
2019-04-28T02:44:23.111Z,1.05
2019-04-28T02:46:50.534Z,1.20
2019-04-28T02:49:20.953Z,1.15
2019-04-28T02:51:50.664Z,1.00
2019-04-28T02:54:20.366Z,1.20
2019-04-28T02:56:46.404Z,1.10
2019-04-28T02:59:14.446Z,1.10
2019-04-28T03:01:42.481Z,1.10
2019-04-28T03:04:12.387Z,0.93
2019-04-28T03:06:40.774Z,1.00
2019-04-28T03:09:07.388Z,0.93
2019-04-28T03:11:35.432Z,1.12
2019-04-28T03:14:03.520Z,1.00
2019-04-28T03:16:31.565Z,1.10
2019-04-28T03:19:01.190Z,1.20
2019-04-28T03:21:27.742Z,1.27
2019-04-28T03:23:55.768Z,1.10
2019-04-28T03:26:35.496Z,1.58
2019-04-28T03:32:28.985Z,1.90
2019-04-28T03:34:42.873Z,1.45
2019-04-28T03:37:06.012Z,1.20
2019-04-28T03:39:34.015Z,1.05
2019-04-28T03:42:02.168Z,1.17
2019-04-28T03:44:30.938Z,1.20
2019-04-28T03:47:00.720Z,1.40
2019-04-28T03:49:31.161Z,1.30
2019-04-28T03:52:00.420Z,1.12
2019-04-28T03:54:27.327Z,1.20
2019-04-28T03:56:55.373Z,1.40
2019-04-28T03:59:24.180Z,2.80
2019-04-28T04:01:59.194Z,1.90
2019-04-28T04:04:21.397Z,1.58
2019-04-28T04:06:50.909Z,1.67
2019-04-28T04:09:18.012Z,1.60
2019-04-28T04:11:51.769Z,1.60
2019-04-28T04:14:26.469Z,1.60
2019-04-28T04:16:56.435Z,1.40
2019-04-28T04:19:25.243Z,1.50
2019-04-28T04:21:53.287Z,1.60
2019-04-28T04:24:22.108Z,1.52
2019-04-28T04:26:50.590Z,1.45
2019-04-28T04:29:21.702Z,1.60
2019-04-28T04:31:47.740Z,1.50
2019-04-28T04:34:15.925Z,1.62
2019-04-28T04:36:43.995Z,1.45
2019-04-28T04:39:12.167Z,1.48
2019-04-28T04:41:43.678Z,1.40
2019-04-28T04:44:11.082Z,1.77
2019-04-28T04:46:37.187Z,1.40
2019-04-28T04:49:05.277Z,2.67
2019-04-28T04:51:33.326Z,2.72
2019-04-28T04:54:02.127Z,2.10
2019-04-28T04:56:30.399Z,2.50
2019-04-28T04:59:02.173Z,1.83
2019-04-28T05:01:27.629Z,1.73
2019-04-28T05:03:59.635Z,2.00
2019-04-28T05:06:32.700Z,2.00
2019-04-28T05:09:01.498Z,1.98
2019-04-28T05:11:30.046Z,1.73
2019-04-28T05:13:59.643Z,2.37
2019-04-28T05:16:26.387Z,1.98
2019-04-28T05:18:54.422Z,1.83
2019-04-28T05:21:22.484Z,1.50
2019-04-28T05:26:49.630Z,1.70
2019-04-28T05:29:19.987Z,1.67
2019-04-28T05:31:44.392Z,1.50
2019-04-28T05:34:12.520Z,1.62
2019-04-28T05:36:44.571Z,1.57
2019-04-28T05:39:10.447Z,1.70
2019-04-28T05:41:37.382Z,1.87
2019-04-28T05:44:05.416Z,1.80
2019-04-28T05:46:33.453Z,2.30
2019-04-28T05:49:02.274Z,1.55
2019-04-28T05:51:32.175Z,2.00
2019-04-28T05:54:15.897Z,1.83
2019-04-28T05:56:45.172Z,1.60
2019-04-28T05:59:14.724Z,1.73
2019-04-28T06:02:01.567Z,1.67
2019-04-28T06:04:30.455Z,1.75
2019-04-28T06:06:59.651Z,1.52
2019-04-28T06:09:29.519Z,1.40
2019-04-28T06:12:00.017Z,1.40
2019-04-28T06:14:26.188Z,1.20
2019-04-28T06:16:54.215Z,1.40
2019-04-28T06:19:22.331Z,1.65
2019-04-28T06:21:50.412Z,1.48
2019-04-28T06:24:19.193Z,1.63
2019-04-28T06:26:47.224Z,1.52
2019-04-28T06:29:15.271Z,1.70
2019-04-28T06:31:43.300Z,1.60
2019-04-28T06:34:11.415Z,1.48
2019-04-28T06:36:39.406Z,1.50
2019-04-28T06:39:08.224Z,1.40
2019-04-28T06:41:36.247Z,1.27
2019-04-28T06:44:04.383Z,1.10
2019-04-28T06:49:06.642Z,1.40
2019-04-28T06:51:34.721Z,1.20
2019-04-28T06:54:02.768Z,1.30
2019-04-28T06:56:30.776Z,1.50
2019-04-28T06:58:59.525Z,1.62
2019-04-28T07:01:26.896Z,1.42
2019-04-28T07:03:55.686Z,1.60
2019-04-28T07:06:23.762Z,1.50
2019-04-28T07:08:51.806Z,1.20
2019-04-28T07:11:20.603Z,1.40
2019-04-28T07:13:49.518Z,1.20
2019-04-28T07:16:17.570Z,1.50
2019-04-28T07:18:45.623Z,1.37
2019-04-28T07:21:14.418Z,1.95
2019-04-28T07:23:43.315Z,1.40
2019-04-28T07:26:11.424Z,1.80
2019-04-28T07:28:40.168Z,1.40
2019-04-28T07:31:08.980Z,1.30
2019-04-28T07:33:37.024Z,1.50
2019-04-28T07:36:05.838Z,1.60
2019-04-28T07:38:33.884Z,1.40
2019-04-28T07:41:02.704Z,1.48
2019-04-28T07:43:30.729Z,1.50
2019-04-28T07:45:59.596Z,1.52
2019-04-28T07:48:27.617Z,2.15
2019-04-28T07:50:55.679Z,2.15
2019-04-28T07:53:24.162Z,1.48
2019-04-28T07:55:52.220Z,1.60
2019-04-28T07:58:21.126Z,1.27
2019-04-28T08:00:49.173Z,1.30
2019-04-28T08:03:18.088Z,1.48
2019-04-28T08:05:46.147Z,1.20
2019-04-28T08:08:14.200Z,1.58
2019-04-28T08:10:43.027Z,1.25
2019-04-28T08:13:11.051Z,1.48
2019-04-28T08:15:39.868Z,1.20
2019-04-28T08:18:07.936Z,1.30
2019-04-28T08:20:36.015Z,1.08
2019-04-28T08:23:04.897Z,1.77
2019-04-28T08:25:32.930Z,1.20
2019-04-28T08:28:01.228Z,1.17
2019-04-28T08:30:29.260Z,1.70
2019-04-28T08:32:57.293Z,1.48
2019-04-28T08:35:25.340Z,1.60
2019-04-28T08:37:53.428Z,1.40
2019-04-28T08:40:21.470Z,1.37
2019-04-28T08:42:50.284Z,1.50
2019-04-28T08:45:18.351Z,1.48
2019-04-28T08:47:46.398Z,1.20
2019-04-28T08:53:02.635Z,1.20
2019-04-28T08:55:30.683Z,1.35
2019-04-28T08:57:59.492Z,1.33
2019-04-28T09:00:27.546Z,1.40
2019-04-28T09:02:56.357Z,1.42
2019-04-28T09:05:24.396Z,1.30
2019-04-28T09:07:53.371Z,1.30
2019-04-28T09:10:21.386Z,1.10
2019-04-28T09:12:49.468Z,1.10
2019-04-28T09:15:17.524Z,1.10
2019-04-28T09:17:45.604Z,1.20
2019-04-28T09:20:13.670Z,0.90
2019-04-28T09:22:41.722Z,1.20
2019-04-28T09:25:10.619Z,1.10
2019-04-28T09:27:38.710Z,1.08
2019-04-28T09:30:06.762Z,1.00
2019-04-28T09:32:34.843Z,1.00
2019-04-28T09:35:04.561Z,1.30
2019-04-28T09:37:32.725Z,1.80
2019-04-28T09:40:01.980Z,1.70
2019-04-28T09:42:39.924Z,1.80
2019-04-28T09:45:14.536Z,1.90
2019-04-28T09:47:42.567Z,1.90
2019-04-28T09:50:10.788Z,2.12
2019-04-28T09:52:38.853Z,2.05
2019-04-28T09:55:06.888Z,1.90
2019-04-28T09:57:35.012Z,1.65
2019-04-28T10:00:03.046Z,1.90
2019-04-28T10:02:31.070Z,2.00
2019-04-28T10:04:59.106Z,2.22
2019-04-28T10:07:27.163Z,1.75
2019-04-28T10:09:55.969Z,2.03
2019-04-28T10:12:27.314Z,2.00
2019-04-28T10:14:52.119Z,1.77
2019-04-28T10:17:20.195Z,1.70
2019-04-28T10:19:48.202Z,2.17
2019-04-28T10:22:16.265Z,1.48
2019-04-28T10:24:44.437Z,1.20
2019-04-28T10:27:12.485Z,1.33
2019-04-28T10:29:40.627Z,1.50
2019-04-28T10:32:08.717Z,1.70
2019-04-28T10:34:36.767Z,1.40
2019-04-28T10:37:04.847Z,1.20
2019-04-28T10:39:46.605Z,1.35
2019-04-28T10:42:14.728Z,1.20
2019-04-28T10:44:42.764Z,1.27
2019-04-28T10:47:10.819Z,1.37
2019-04-28T10:49:39.632Z,1.45
2019-04-28T10:52:07.674Z,2.00
2019-04-28T10:54:36.501Z,1.30
2019-04-28T10:57:04.568Z,1.37
2019-04-28T10:59:32.640Z,1.37
2019-04-28T11:02:01.431Z,1.30
2019-04-28T11:04:35.206Z,1.20
2019-04-28T11:07:04.021Z,1.10
2019-04-28T11:09:32.805Z,1.43
2019-04-28T11:12:00.888Z,1.45
2019-04-28T11:14:28.947Z,1.10
2019-04-28T11:16:56.993Z,1.20
2019-04-28T11:19:25.913Z,1.25
2019-04-28T11:21:53.964Z,1.40
2019-04-28T11:24:22.058Z,1.15
2019-04-28T11:26:50.208Z,1.30
2019-04-28T11:29:18.251Z,1.10
2019-04-28T11:31:46.274Z,1.10
2019-04-28T11:34:18.873Z,1.33
2019-04-28T11:36:47.539Z,1.55
2019-04-28T11:39:15.558Z,1.70
2019-04-28T11:41:44.384Z,1.30
2019-04-28T11:44:12.439Z,1.37
2019-04-28T11:46:40.474Z,1.45
2019-04-28T11:49:08.495Z,1.67
2019-04-28T11:51:36.551Z,1.25
2019-04-28T11:54:05.513Z,1.10
2019-04-28T11:56:41.092Z,1.40
2019-04-28T11:59:01.587Z,1.40
2019-04-28T12:01:29.632Z,1.30
2019-04-28T12:03:58.438Z,1.30
2019-04-28T12:06:26.515Z,1.70
2019-04-28T12:08:54.998Z,1.50
2019-04-28T12:11:25.014Z,1.50
2019-04-28T12:13:53.866Z,1.40
2019-04-28T12:16:23.784Z,1.40
2019-04-28T12:21:52.392Z,1.40
2019-04-28T12:24:21.298Z,1.40
2019-04-28T12:26:49.356Z,1.25
2019-04-28T12:29:18.184Z,1.50
2019-04-28T12:31:46.227Z,1.35
2019-04-28T12:34:15.027Z,1.20
2019-04-28T12:36:43.059Z,1.50
2019-04-28T12:39:11.075Z,2.60
2019-04-28T12:41:39.130Z,2.30
2019-04-28T12:44:07.189Z,1.40
2019-04-28T12:46:35.231Z,1.20
2019-04-28T12:51:59.060Z,1.30
2019-04-28T12:54:27.939Z,1.00
2019-04-28T12:56:57.038Z,1.02
2019-04-28T12:59:25.078Z,1.15
2019-04-28T13:01:59.695Z,1.20
2019-04-28T13:04:28.575Z,1.10
2019-04-28T13:07:02.688Z,0.85
2019-04-28T13:09:30.829Z,1.10
2019-04-28T13:11:58.902Z,1.17
2019-04-28T13:14:27.047Z,1.40
2019-04-28T13:16:55.126Z,1.10
2019-04-28T13:19:23.185Z,0.98
2019-04-28T13:21:51.229Z,0.93
2019-04-28T13:24:20.164Z,0.90
2019-04-28T13:26:48.210Z,1.05
2019-04-28T13:29:17.029Z,0.98
2019-04-28T13:31:45.081Z,1.02
2019-04-28T13:34:13.155Z,0.90
2019-04-28T13:36:41.200Z,1.15
2019-04-28T13:39:20.827Z,1.10
2019-04-28T13:41:48.874Z,0.95
2019-04-28T13:44:16.941Z,1.00
2019-04-28T13:46:45.075Z,0.80
2019-04-28T13:49:13.164Z,1.00
2019-04-28T13:51:41.222Z,1.00
2019-04-28T13:54:09.378Z,0.95
2019-04-28T13:56:37.491Z,1.15
2019-04-28T13:59:05.522Z,1.05
2019-04-28T14:01:34.091Z,1.20
2019-04-28T14:04:05.776Z,1.02
2019-04-28T14:06:34.434Z,1.10
2019-04-28T14:09:03.240Z,1.15
2019-04-28T14:11:31.348Z,1.12
2019-04-28T14:13:59.378Z,1.02
2019-04-28T14:16:27.459Z,1.02
2019-04-28T14:18:55.480Z,1.17
2019-04-28T14:21:23.603Z,1.02
2019-04-28T14:23:51.675Z,1.00
2019-04-28T14:26:19.791Z,1.05
2019-04-28T14:28:47.783Z,1.10
2019-04-28T14:31:15.833Z,1.10
2019-04-28T14:33:43.953Z,1.20
2019-04-28T14:36:12.039Z,0.90
2019-04-28T14:38:43.006Z,1.10
2019-04-28T14:41:09.075Z,1.00
2019-04-28T14:43:37.866Z,1.03
2019-04-28T14:46:06.009Z,1.17
2019-04-28T14:48:34.723Z,1.20
2019-04-28T14:51:02.900Z,1.10
2019-04-28T14:53:31.576Z,1.30
2019-04-28T14:55:59.656Z,1.30
2019-04-28T14:58:28.541Z,1.00
2019-04-28T15:03:53.110Z,1.25
2019-04-28T15:06:31.783Z,1.00
2019-04-28T15:09:10.552Z,1.30
2019-04-28T15:11:40.287Z,1.27
2019-04-28T15:14:09.221Z,1.70
2019-04-28T15:16:37.248Z,1.20
2019-04-28T15:19:05.304Z,0.98
2019-04-28T15:21:34.237Z,2.33
2019-04-28T15:24:02.397Z,2.30
2019-04-28T15:26:31.274Z,1.40
2019-04-28T15:28:59.359Z,1.65
2019-04-28T15:31:27.437Z,1.20
2019-04-28T15:33:55.497Z,1.40
2019-04-28T15:36:23.536Z,1.25
2019-04-28T15:38:51.649Z,1.20
2019-04-28T15:41:21.782Z,1.30
2019-04-28T15:43:48.608Z,4.07
2019-04-28T15:46:16.765Z,18.33
2019-04-28T15:48:44.837Z,3.08
2019-04-28T15:51:12.925Z,1.70
2019-04-28T15:53:40.973Z,1.80
2019-04-28T15:56:13.368Z,1.35
2019-04-28T15:58:41.432Z,2.65
2019-04-28T16:01:09.482Z,1.70
2019-04-28T16:03:38.278Z,3.10
2019-04-28T16:06:06.367Z,3.80
2019-04-28T16:08:34.422Z,5.68
2019-04-28T16:11:02.481Z,4.95
2019-04-28T16:13:31.287Z,1.52
2019-04-28T16:15:59.322Z,1.83
2019-04-28T16:18:28.154Z,1.60
2019-04-28T16:20:56.220Z,2.28
2019-04-28T16:23:24.277Z,2.08
2019-04-28T16:25:52.347Z,1.77
2019-04-28T16:28:20.406Z,1.90
2019-04-28T16:30:48.476Z,1.50
2019-04-28T16:33:16.580Z,1.33
2019-04-28T16:35:44.614Z,1.80
2019-04-28T16:38:13.523Z,1.77
2019-04-28T16:40:41.559Z,2.20
2019-04-28T16:43:09.658Z,2.10
2019-04-28T16:45:37.700Z,2.22
2019-04-28T16:48:05.821Z,3.28
2019-04-28T16:50:33.850Z,2.10
2019-04-28T16:53:02.792Z,2.50
2019-04-28T16:55:31.408Z,2.90
2019-04-28T16:58:04.452Z,2.83
2019-04-28T17:00:50.220Z,3.97
2019-04-28T17:03:18.306Z,2.67
2019-04-28T17:05:46.335Z,2.30
2019-04-28T17:08:15.250Z,1.85
2019-04-28T17:10:44.018Z,2.00
2019-04-28T17:13:12.837Z,1.95
2019-04-28T17:15:40.873Z,2.00
2019-04-28T17:18:09.789Z,2.20
2019-04-28T17:20:38.576Z,1.75
2019-04-28T17:23:06.653Z,1.83
2019-04-28T17:25:35.436Z,1.80
2019-04-28T17:28:03.479Z,2.20
2019-04-28T17:30:31.514Z,1.90
2019-04-28T17:32:59.554Z,1.90
2019-04-28T17:35:27.597Z,2.30
2019-04-28T17:38:06.033Z,2.30
2019-04-28T17:40:23.695Z,1.87
2019-04-28T17:42:51.713Z,1.80
2019-04-28T17:45:20.487Z,1.50
2019-04-28T17:47:49.312Z,1.90
2019-04-28T17:50:17.338Z,1.70
2019-04-28T17:52:46.160Z,1.70
2019-04-28T17:55:14.195Z,1.75
2019-04-28T17:57:42.270Z,1.90
2019-04-28T18:00:27.882Z,2.00
2019-04-28T18:02:57.878Z,1.60
2019-04-28T18:05:28.413Z,1.62
2019-04-28T18:07:56.716Z,1.70
2019-04-28T18:10:24.464Z,1.77
2019-04-28T18:13:00.357Z,1.73
2019-04-28T18:15:22.114Z,1.65
2019-04-28T18:17:54.749Z,2.10
2019-04-28T18:20:22.890Z,1.83
2019-04-28T18:22:50.915Z,2.10
2019-04-28T18:25:19.047Z,2.30
2019-04-28T18:27:47.055Z,2.30
2019-04-28T18:30:15.928Z,2.50
2019-04-28T18:32:47.482Z,2.00
2019-04-28T18:35:30.426Z,1.50
2019-04-28T18:38:16.136Z,2.22
2019-04-28T18:40:45.017Z,1.65
2019-04-28T18:43:13.083Z,2.42
2019-04-28T18:45:41.878Z,2.00
2019-04-28T18:48:10.685Z,2.87
2019-04-28T18:50:38.746Z,2.58
2019-04-28T18:53:06.830Z,2.33
2019-04-28T18:55:35.087Z,2.20
2019-04-28T18:58:03.121Z,1.90
2019-04-28T19:00:31.268Z,1.75
2019-04-28T19:02:59.309Z,1.70
2019-04-28T19:05:27.357Z,1.70
2019-04-28T19:08:15.988Z,2.20
2019-04-28T19:10:44.556Z,2.30
2019-04-28T19:13:13.371Z,2.08
2019-04-28T19:15:48.020Z,2.15
2019-04-28T19:18:16.617Z,2.70
2019-04-28T19:20:44.669Z,3.50
2019-04-28T19:23:13.451Z,8.23
2019-04-28T19:25:41.531Z,26.98
2019-04-28T19:28:09.596Z,20.20
2019-04-28T19:30:37.715Z,19.08
2019-04-28T19:33:05.779Z,11.57
2019-04-28T19:35:33.796Z,8.30
2019-04-28T19:38:01.820Z,6.47
2019-04-28T19:40:29.945Z,5.00
2019-04-28T19:42:57.979Z,4.22
2019-04-28T19:45:26.048Z,4.05
2019-04-28T19:47:54.054Z,4.73
2019-04-28T19:50:22.108Z,4.53
2019-04-28T19:52:50.195Z,3.67
2019-04-28T19:55:20.847Z,3.37
2019-04-28T19:57:48.899Z,3.62
2019-04-28T20:00:17.904Z,4.47
2019-04-28T20:02:46.784Z,5.05
2019-04-28T20:05:14.824Z,4.70
2019-04-28T20:07:42.934Z,4.22
2019-04-28T20:10:11.039Z,3.45
2019-04-28T20:12:39.063Z,3.80
2019-04-28T20:15:07.140Z,3.50
2019-04-28T20:17:35.219Z,3.67
2019-04-28T20:20:04.839Z,3.73
2019-04-28T20:22:32.901Z,3.25
2019-04-28T20:25:00.931Z,3.33
2019-04-28T20:27:28.963Z,3.45
2019-04-28T20:29:57.076Z,3.45
2019-04-28T20:32:25.914Z,3.10
2019-04-28T20:34:53.970Z,2.90
2019-04-28T20:37:25.523Z,3.45
2019-04-28T20:40:08.445Z,3.25
2019-04-28T20:42:41.525Z,2.83
2019-04-28T20:45:10.169Z,2.80
2019-04-28T20:47:38.988Z,3.20
2019-04-28T20:50:07.045Z,3.42
2019-04-28T20:52:35.834Z,3.67
2019-04-28T20:55:04.736Z,3.78
2019-04-28T20:57:33.507Z,3.73
2019-04-28T21:00:02.407Z,3.78
2019-04-28T21:02:31.191Z,3.53
2019-04-28T21:04:59.231Z,3.45
2019-04-28T21:07:28.049Z,8.95
2019-04-28T21:09:56.131Z,14.05
2019-04-28T21:12:24.193Z,8.80
2019-04-28T21:14:53.164Z,3.53
2019-04-28T21:17:21.141Z,2.90
2019-04-28T21:19:50.040Z,2.90
2019-04-28T21:22:18.095Z,3.22
2019-04-28T21:24:46.188Z,3.00
2019-04-28T21:27:14.236Z,3.00
2019-04-28T21:29:43.149Z,4.00
2019-04-28T21:32:11.195Z,4.00
2019-04-28T21:34:39.999Z,3.08
2019-04-28T21:37:08.809Z,2.87
2019-04-28T21:39:36.827Z,2.65
2019-04-28T21:42:04.868Z,2.80
2019-04-28T21:44:48.617Z,2.78
2019-04-28T21:47:18.122Z,3.03
2019-04-28T21:49:46.131Z,3.20
2019-04-28T21:52:15.032Z,3.50
2019-04-28T21:54:43.090Z,3.17
2019-04-28T21:57:11.902Z,3.17
2019-04-28T21:59:39.926Z,3.25
2019-04-28T22:02:08.024Z,5.25
2019-04-28T22:04:36.925Z,6.57
2019-04-28T22:07:05.023Z,7.60
2019-04-28T22:09:33.081Z,4.75
2019-04-28T22:12:01.157Z,5.70
2019-04-28T22:14:29.193Z,6.10
2019-04-28T22:16:57.282Z,4.90
2019-04-28T22:19:25.343Z,5.10
2019-04-28T22:21:53.418Z,4.55
2019-04-28T22:24:38.327Z,3.33
2019-04-28T22:27:06.349Z,3.40
2019-04-28T22:29:34.395Z,3.50
2019-04-28T22:32:02.435Z,3.50
2019-04-28T22:34:30.523Z,3.20
2019-04-28T22:36:58.640Z,3.37
2019-04-28T22:39:26.668Z,3.28
2019-04-28T22:41:54.715Z,3.37
2019-04-28T22:44:22.772Z,3.70
2019-04-28T22:46:50.825Z,3.47
2019-04-28T22:49:18.864Z,3.55
2019-04-28T22:51:47.664Z,3.97
2019-04-28T22:54:18.306Z,3.55
2019-04-28T22:56:47.085Z,3.43
2019-04-28T22:59:15.122Z,3.80
2019-04-28T23:01:48.933Z,3.60
2019-04-28T23:04:17.298Z,3.92
2019-04-28T23:06:45.322Z,3.83
2019-04-28T23:09:13.354Z,3.42
2019-04-28T23:11:42.176Z,3.58
2019-04-28T23:14:10.225Z,3.95
2019-04-28T23:16:39.039Z,3.80
2019-04-28T23:19:07.081Z,3.78
2019-04-28T23:21:40.755Z,3.53
2019-04-28T23:24:08.872Z,3.80
2019-04-28T23:26:36.904Z,3.92
2019-04-28T23:29:06.559Z,3.58
2019-04-28T23:31:34.582Z,3.67
2019-04-28T23:34:02.684Z,3.80
2019-04-28T23:36:30.728Z,4.00
2019-04-28T23:38:58.781Z,3.62
2019-04-28T23:41:41.709Z,3.58
2019-04-28T23:44:09.826Z,3.50
2019-04-28T23:46:43.705Z,3.42
2019-04-28T23:49:12.619Z,2.97
2019-04-28T23:51:43.492Z,3.10
2019-04-28T23:54:11.559Z,3.05
2019-04-28T23:56:39.572Z,2.95
2019-04-28T23:59:08.388Z,2.95
